createdAt,value
2022-11-20T00:00:19.317Z,11.70
2022-11-20T00:05:21.017Z,10.10
2022-11-20T00:10:22.559Z,10.00
2022-11-20T00:15:24.152Z,11.07
2022-11-20T00:20:25.832Z,11.00
2022-11-20T00:25:27.435Z,10.10
2022-11-20T00:30:29.036Z,9.57
2022-11-20T00:35:30.947Z,9.90
2022-11-20T00:40:32.586Z,10.07
2022-11-20T00:45:34.136Z,9.73
2022-11-20T00:50:35.783Z,10.05
2022-11-20T00:55:37.394Z,8.52
2022-11-20T01:00:39.102Z,9.60
2022-11-20T01:05:40.640Z,10.25
2022-11-20T01:10:42.179Z,9.02
2022-11-20T01:15:43.792Z,9.10
2022-11-20T01:20:45.363Z,8.60
2022-11-20T01:25:46.949Z,9.50
2022-11-20T01:30:48.476Z,8.90
2022-11-20T01:35:50.005Z,9.40
2022-11-20T01:40:56.040Z,9.20
2022-11-20T01:46:00.540Z,7.23
2022-11-20T01:51:04.874Z,8.63
2022-11-20T01:56:10.647Z,9.80
2022-11-20T02:01:13.721Z,10.65
2022-11-20T02:06:32.432Z,8.90
2022-11-20T02:11:33.981Z,9.38
2022-11-20T02:16:47.446Z,10.20
2022-11-20T02:22:05.668Z,8.77
2022-11-20T02:27:10.976Z,9.30
2022-11-20T02:32:39.519Z,9.73
2022-11-20T02:37:41.775Z,9.52
2022-11-20T02:42:43.444Z,9.13
2022-11-20T02:47:45.027Z,9.88
2022-11-20T02:52:46.629Z,10.23
2022-11-20T02:57:48.122Z,9.63
2022-11-20T03:02:49.680Z,8.77
2022-11-20T03:07:51.355Z,9.43
2022-11-20T03:12:56.058Z,9.20
2022-11-20T03:17:57.681Z,10.40
2022-11-20T03:22:59.211Z,10.35
2022-11-20T03:28:00.778Z,10.60
2022-11-20T03:33:02.369Z,10.07
2022-11-20T03:38:03.954Z,10.23
2022-11-20T03:43:05.504Z,10.70
2022-11-20T03:48:07.021Z,11.70
2022-11-20T03:53:08.619Z,10.63
2022-11-20T03:58:10.938Z,9.98
2022-11-20T04:03:12.465Z,11.32
2022-11-20T04:08:14.023Z,11.13
2022-11-20T04:13:15.870Z,10.65
2022-11-20T04:18:17.440Z,11.60
2022-11-20T04:23:19.033Z,11.63
2022-11-20T04:28:21.233Z,10.98
2022-11-20T04:33:22.756Z,12.32
2022-11-20T04:38:24.275Z,11.40
2022-11-20T04:43:25.965Z,11.43
2022-11-20T04:48:30.021Z,12.95
2022-11-20T04:53:31.753Z,12.52
2022-11-20T04:58:34.482Z,12.05
2022-11-20T05:03:41.001Z,11.65
2022-11-20T05:08:43.903Z,11.25
2022-11-20T05:13:45.724Z,11.13
2022-11-20T05:18:48.316Z,10.27
2022-11-20T05:23:50.002Z,12.32
2022-11-20T05:28:52.388Z,12.25
2022-11-20T05:33:54.370Z,13.18
2022-11-20T05:39:01.264Z,11.38
2022-11-20T05:44:03.285Z,12.95
2022-11-20T05:49:04.935Z,12.45
2022-11-20T05:54:06.519Z,11.77
2022-11-20T05:59:08.193Z,12.98
2022-11-20T06:04:09.835Z,14.20
2022-11-20T06:09:11.351Z,12.15
2022-11-20T06:14:12.925Z,11.75
2022-11-20T06:19:14.523Z,11.68
2022-11-20T06:24:16.311Z,10.80
2022-11-20T06:29:18.021Z,10.18
2022-11-20T06:34:19.711Z,10.13
2022-11-20T06:39:21.483Z,10.73
2022-11-20T06:44:23.345Z,10.55
2022-11-20T06:49:25.290Z,10.93
2022-11-20T06:54:26.931Z,11.48
2022-11-20T06:59:28.496Z,11.00
2022-11-20T07:04:30.006Z,10.93
2022-11-20T07:09:31.520Z,11.75
2022-11-20T07:14:33.140Z,11.10
2022-11-20T07:19:34.667Z,10.60
2022-11-20T07:24:36.290Z,11.95
2022-11-20T07:29:37.876Z,11.55
2022-11-20T07:34:39.401Z,9.95
2022-11-20T07:39:41.089Z,11.27
2022-11-20T07:44:42.661Z,12.52
2022-11-20T07:49:44.346Z,11.00
2022-11-20T07:54:45.963Z,11.55
2022-11-20T07:59:47.557Z,11.38
2022-11-20T08:04:49.352Z,11.30
2022-11-20T08:09:51.081Z,10.68
2022-11-20T08:14:52.713Z,12.13
2022-11-20T08:19:54.289Z,11.43
2022-11-20T08:24:55.834Z,10.48
2022-11-20T08:29:57.490Z,10.90
2022-11-20T08:34:59.190Z,9.90
2022-11-20T08:40:00.798Z,11.07
2022-11-20T08:45:02.447Z,10.30
2022-11-20T08:50:04.169Z,11.32
2022-11-20T08:55:07.394Z,12.95
2022-11-20T09:00:11.498Z,14.30
2022-11-20T09:05:13.184Z,11.68
2022-11-20T09:10:30.166Z,11.63
2022-11-20T09:15:32.348Z,13.10
2022-11-20T09:20:33.925Z,13.43
2022-11-20T09:25:35.564Z,13.02
2022-11-20T09:30:37.161Z,12.10
2022-11-20T09:35:38.821Z,12.63
2022-11-20T09:40:47.858Z,13.10
2022-11-20T09:46:07.729Z,12.27
2022-11-20T09:51:33.952Z,12.55
2022-11-20T09:56:40.019Z,12.48
2022-11-20T10:01:41.644Z,12.80
2022-11-20T10:07:32.622Z,11.88
2022-11-20T10:13:03.079Z,11.70
2022-11-20T10:18:31.713Z,12.38
2022-11-20T10:24:05.276Z,14.45
2022-11-20T10:29:19.389Z,13.45
2022-11-20T10:34:34.736Z,13.10
2022-11-20T10:39:45.552Z,13.38
2022-11-20T10:44:56.551Z,11.93
2022-11-20T10:50:13.815Z,13.77
2022-11-20T10:55:53.204Z,13.45
2022-11-20T11:01:05.250Z,12.53
2022-11-20T11:06:21.917Z,14.57
2022-11-20T11:11:32.798Z,12.25
2022-11-20T11:16:34.981Z,13.80
2022-11-20T11:21:36.662Z,11.90
2022-11-20T11:26:38.520Z,13.63
2022-11-20T11:31:40.216Z,13.45
2022-11-20T11:36:43.239Z,11.45
2022-11-20T11:41:45.226Z,14.07
2022-11-20T11:46:57.509Z,11.18
2022-11-20T11:52:17.102Z,11.88
2022-11-20T11:57:50.880Z,10.40
2022-11-20T12:03:04.024Z,12.07
2022-11-20T12:08:24.371Z,11.82
2022-11-20T12:13:31.675Z,12.57
2022-11-20T12:18:33.906Z,15.57
2022-11-20T12:23:53.654Z,13.65
2022-11-20T12:29:02.601Z,13.73
2022-11-20T12:34:39.103Z,13.48
2022-11-20T12:39:49.404Z,12.82
2022-11-20T12:45:16.573Z,12.32
2022-11-20T12:51:00.275Z,11.13
2022-11-20T12:56:04.054Z,11.93
2022-11-20T13:01:20.527Z,13.05
2022-11-20T13:06:22.569Z,12.95
2022-11-20T13:11:42.282Z,13.82
2022-11-20T13:16:53.225Z,13.88
2022-11-20T13:21:54.865Z,12.13
2022-11-20T13:27:14.580Z,13.70
2022-11-20T13:32:18.856Z,12.93
2022-11-20T13:37:31.651Z,12.90
2022-11-20T13:42:59.544Z,13.43
2022-11-20T13:48:05.885Z,12.38
2022-11-20T13:53:19.109Z,12.30
2022-11-20T13:58:32.658Z,13.05
2022-11-20T14:04:04.518Z,11.35
2022-11-20T14:08:57.531Z,12.30
2022-11-20T14:14:01.550Z,10.95
2022-11-20T14:19:21.876Z,12.07
2022-11-20T14:24:25.596Z,13.02
2022-11-20T14:29:38.516Z,11.75
2022-11-20T14:34:44.419Z,12.57
2022-11-20T14:39:51.937Z,11.53
2022-11-20T14:44:58.323Z,11.77
2022-11-20T14:50:04.649Z,11.82
2022-11-20T14:55:25.618Z,11.50
2022-11-20T15:00:28.027Z,13.07
2022-11-20T15:05:49.208Z,12.95
2022-11-20T15:10:52.667Z,13.20
2022-11-20T15:15:59.588Z,12.18
2022-11-20T15:21:10.956Z,11.75
2022-11-20T15:26:19.503Z,14.10
2022-11-20T15:31:23.937Z,13.20
2022-11-20T15:36:28.621Z,13.45
2022-11-20T15:41:30.321Z,12.90
2022-11-20T15:46:37.160Z,12.88
2022-11-20T15:56:40.971Z,9.02
2022-11-20T16:01:43.486Z,7.68
2022-11-20T16:06:45.141Z,8.30
2022-11-20T16:11:48.036Z,8.57
2022-11-20T16:16:49.702Z,8.50
2022-11-20T16:21:51.445Z,7.75
2022-11-20T16:26:54.721Z,5.80
2022-11-20T16:31:57.696Z,8.02
2022-11-20T16:36:59.640Z,6.15
2022-11-20T16:42:05.412Z,6.63
2022-11-20T16:47:06.978Z,6.43
2022-11-20T16:52:08.722Z,6.05
2022-11-20T16:57:10.371Z,4.10
2022-11-20T17:02:11.869Z,4.50
2022-11-20T17:07:13.492Z,4.32
2022-11-20T17:12:15.229Z,4.97
2022-11-20T17:17:17.162Z,5.55
2022-11-20T17:22:18.813Z,4.90
2022-11-20T17:27:20.401Z,13.35
2022-11-20T17:32:22.186Z,6.13
2022-11-20T17:37:23.940Z,6.10
2022-11-20T17:42:25.593Z,5.57
2022-11-20T17:47:27.175Z,6.60
2022-11-20T17:52:28.813Z,7.70
2022-11-20T17:57:30.399Z,7.53
2022-11-20T18:02:32.202Z,8.70
2022-11-20T18:07:40.173Z,7.18
2022-11-20T18:12:43.205Z,7.55
2022-11-20T18:17:44.976Z,11.32
2022-11-20T18:22:46.521Z,7.80
2022-11-20T18:27:48.055Z,10.45
2022-11-20T18:32:49.805Z,13.93
2022-11-20T18:37:51.358Z,10.27
2022-11-20T18:42:53.021Z,11.57
2022-11-20T18:47:54.765Z,6.90
2022-11-20T18:52:56.387Z,3.00
2022-11-20T18:57:58.016Z,4.32
2022-11-20T19:02:59.741Z,3.92
2022-11-20T19:08:01.451Z,6.45
2022-11-20T19:13:03.169Z,7.15
2022-11-20T19:18:04.850Z,10.32
2022-11-20T19:23:06.447Z,6.60
2022-11-20T19:28:08.327Z,9.35
2022-11-20T19:33:09.984Z,8.07
2022-11-20T19:38:11.596Z,6.20
2022-11-20T19:43:13.195Z,7.35
2022-11-20T19:48:14.675Z,7.22
2022-11-20T19:53:16.254Z,5.88
2022-11-20T19:58:18.095Z,5.20
2022-11-20T20:03:20.099Z,6.18
2022-11-20T20:08:21.633Z,5.63
2022-11-20T20:13:24.050Z,4.22
2022-11-20T20:18:25.921Z,4.63
2022-11-20T20:23:27.516Z,4.05
2022-11-20T20:28:29.697Z,4.40
2022-11-20T20:33:31.345Z,2.85
2022-11-20T20:38:33.743Z,4.97
2022-11-20T20:43:36.170Z,5.40
2022-11-20T20:48:37.710Z,4.10
2022-11-20T20:53:39.219Z,4.25
2022-11-20T20:58:41.075Z,3.25
2022-11-20T21:03:42.694Z,2.90
2022-11-20T21:08:44.776Z,3.30
2022-11-20T21:13:47.453Z,3.38
2022-11-20T21:18:49.165Z,3.72
2022-11-20T21:23:50.686Z,4.72
2022-11-20T21:28:52.428Z,2.85
2022-11-20T21:33:55.698Z,2.65
2022-11-20T21:38:58.357Z,2.60
2022-11-20T21:44:30.588Z,3.53
2022-11-20T21:49:23.530Z,3.70
2022-11-20T21:54:25.522Z,4.53
2022-11-20T21:59:27.346Z,3.72
2022-11-20T22:04:29.000Z,4.18
2022-11-20T22:09:30.497Z,3.10
2022-11-20T22:14:32.088Z,3.55
2022-11-20T22:19:33.639Z,3.53
2022-11-20T22:24:35.178Z,3.65
2022-11-20T22:29:36.688Z,4.55
2022-11-20T22:34:38.276Z,3.30
2022-11-20T22:39:39.840Z,3.45
2022-11-20T22:44:41.586Z,3.78
2022-11-20T22:49:43.124Z,3.67
2022-11-20T22:54:44.644Z,3.72
2022-11-20T22:59:46.284Z,3.58
2022-11-20T23:04:47.778Z,3.70
2022-11-20T23:09:49.311Z,4.78
2022-11-20T23:14:50.787Z,4.78
2022-11-20T23:19:52.341Z,4.30
2022-11-20T23:24:53.960Z,4.40
2022-11-20T23:29:55.545Z,5.55
2022-11-20T23:34:57.143Z,5.43
2022-11-20T23:40:01.543Z,5.18
2022-11-20T23:45:03.332Z,4.18
2022-11-20T23:50:05.286Z,4.80
2022-11-20T23:55:07.191Z,6.05
